CDT,Max TemperatureF,Mean TemperatureF,Min TemperatureF,Max Dew PointF,MeanDew PointF,Min DewpointF,Max Humidity, Mean Humidity, Min Humidity, Max Sea Level PressureIn, Mean Sea Level PressureIn, Min Sea Level PressureIn, Max VisibilityMiles, Mean VisibilityMiles, Min VisibilityMiles, Max Wind SpeedMPH, Mean Wind SpeedMPH, Max Gust SpeedMPH,PrecipitationIn, CloudCover, Events, WindDirDegrees
2013-10-1,77,65,53,52,43,31,63,41,19,30.00,29.79,29.59,10,10,10,23,10,31,0.00,2,,261
2013-10-2,77,63,48,56,45,34,93,58,23,30.06,29.95,29.84,10,9,4,30,8,36,0.90,5,Rain-Thunderstorm,99
2013-10-3,61,58,55,58,57,55,100,92,84,29.94,29.87,29.83,10,8,4,15,9,25,0.03,8,Rain-Thunderstorm,50
2013-10-4,59,57,55,57,55,53,100,90,80,29.99,29.93,29.85,10,8,3,26,14,31,0.29,8,Rain-Thunderstorm,56
2013-10-5,61,54,46,59,52,43,97,82,67,29.85,29.80,29.75,10,8,2,18,6,25,0.01,7,Rain-Thunderstorm,161
2013-10-6,55,49,42,52,47,40,100,92,83,29.86,29.75,29.70,10,8,2,17,6,25,0.05,6,Fog-Rain,317
2013-10-7,67,55,43,46,42,39,100,69,37,29.99,29.93,29.85,10,10,10,13,4,17,0.00,1,,250
2013-10-8,77,64,50,46,44,41,74,53,31,29.99,29.90,29.83,10,10,10,26,13,33,0.00,3,,161
2013-10-9,76,66,56,51,49,46,72,55,38,30.05,30.01,29.95,10,10,10,17,10,25,0.00,1,,162
2013-10-10,78,65,52,52,48,45,83,59,35,30.05,29.97,29.89,10,10,10,20,10,25,0.00,4,,133
2013-10-11,75,66,57,59,54,51,80,65,49,29.88,29.75,29.65,10,9,2,31,18,40,0.04,6,Rain-Thunderstorm,150
2013-10-12,58,52,46,53,43,39,80,68,55,30.19,29.94,29.73,10,10,10,28,10,40,T,5,,236
2013-10-13,61,50,39,40,36,32,86,61,35,30.45,30.37,30.22,10,10,10,12,2,18,0.00,1,,232
2013-10-14,55,49,42,48,40,36,93,74,54,30.42,30.22,29.98,10,9,2,23,11,32,0.56,7,Rain,98
2013-10-15,55,51,46,54,49,46,100,97,93,29.92,29.75,29.68,10,5,2,25,12,32,0.62,8,Rain,157
2013-10-16,55,49,42,46,41,35,100,75,50,29.97,29.91,29.82,10,9,3,18,8,24,0.01,6,Rain,317
2013-10-17,59,50,41,47,40,34,100,72,44,29.90,29.83,29.77,10,9,4,20,6,24,0.17,7,Rain,283
2013-10-18,53,46,38,41,36,28,93,67,41,29.99,29.91,29.85,10,10,8,21,8,29,0.02,6,Rain,296
2013-10-19,49,42,34,40,36,32,92,79,66,29.84,29.76,29.69,10,9,4,25,6,31,0.06,6,Rain,260
2013-10-20,47,40,33,39,35,30,92,82,71,29.89,29.75,29.63,10,9,5,22,8,28,0.08,8,Rain,306
2013-10-21,40,35,29,30,23,20,78,63,48,29.99,29.96,29.91,10,10,10,21,10,29,T,6,,295
2013-10-22,40,33,26,32,28,24,92,76,59,30.05,30.02,29.98,10,10,10,14,4,21,T,6,,316
2013-10-23,39,36,33,32,25,18,89,68,47,30.13,30.06,30.02,10,10,10,17,9,23,T,8,Rain,307
2013-10-24,44,39,33,31,26,21,82,68,53,30.33,30.25,30.14,10,10,10,18,8,22,0.00,7,,305
2013-10-25,58,43,28,41,33,26,92,70,47,30.34,30.08,29.80,10,10,9,21,10,29,0.00,4,,217
2013-10-26,50,43,36,40,30,27,75,62,49,30.12,30.02,29.81,10,10,10,31,11,39,0.00,4,,304
2013-10-27,58,45,31,34,30,27,85,62,39,30.15,29.96,29.83,10,10,10,21,8,30,0.00,1,,305
2013-10-28,44,38,31,30,23,19,75,57,39,30.46,30.38,30.18,10,10,10,18,10,24,0.00,3,,45
2013-10-29,42,37,32,37,28,21,92,74,56,30.43,30.27,30.11,10,10,6,15,8,21,0.03,8,Rain,64
2013-10-30,50,45,40,50,44,37,100,96,92,30.10,29.92,29.68,7,2,0,17,5,20,0.13,8,Fog-Rain,93
2013-10-31,50,45,40,50,43,37,100,91,82,29.65,29.53,29.41,10,5,0,15,9,18,T,8,Fog-Rain,275